createdAt,value
2023-05-12T00:04:13.656Z,44.43
2023-05-12T00:09:18.601Z,44.26
2023-05-12T00:14:24.084Z,43.88
2023-05-12T00:19:29.058Z,43.75
2023-05-12T00:24:34.061Z,44.44
2023-05-12T00:29:39.181Z,43.78
2023-05-12T00:34:44.598Z,43.45
2023-05-12T00:39:49.383Z,43.87
2023-05-12T00:44:54.692Z,43.67
2023-05-12T00:50:00.568Z,43.68
2023-05-12T00:55:06.469Z,42.30
2023-05-12T01:00:14.020Z,43.18
2023-05-12T01:05:20.842Z,43.03
2023-05-12T01:10:25.941Z,43.24
2023-05-12T01:15:34.476Z,42.55
2023-05-12T01:20:40.172Z,42.72
2023-05-12T01:25:47.174Z,42.77
2023-05-12T01:30:52.926Z,42.90
2023-05-12T01:35:57.980Z,42.85
2023-05-12T01:41:03.537Z,42.72
2023-05-12T01:46:09.214Z,42.51
2023-05-12T01:51:17.638Z,42.56
2023-05-12T01:56:24.151Z,42.46
2023-05-12T02:01:29.982Z,42.47
2023-05-12T02:06:35.191Z,42.32
2023-05-12T02:11:40.743Z,42.38
2023-05-12T02:16:46.270Z,42.12
2023-05-12T02:21:51.468Z,42.57
2023-05-12T02:26:56.366Z,42.18
2023-05-12T02:32:01.494Z,42.25
2023-05-12T02:37:05.911Z,41.46
2023-05-12T02:42:11.010Z,41.97
2023-05-12T02:47:16.173Z,42.15
2023-05-12T02:52:23.443Z,41.87
2023-05-12T02:57:34.393Z,42.27
2023-05-12T03:02:41.112Z,42.03
2023-05-12T03:07:45.451Z,41.26
2023-05-12T03:12:50.502Z,41.53
2023-05-12T03:17:55.531Z,42.35
2023-05-12T03:23:00.525Z,42.04
2023-05-12T03:28:05.948Z,41.22
2023-05-12T03:33:11.203Z,41.01
2023-05-12T03:38:16.410Z,40.99
2023-05-12T03:43:22.420Z,40.92
2023-05-12T03:48:27.643Z,40.41
2023-05-12T03:53:32.440Z,40.08
2023-05-12T03:58:37.823Z,40.50
2023-05-12T04:03:44.396Z,40.36
2023-05-12T04:08:49.511Z,39.93
2023-05-12T04:13:54.772Z,39.21
2023-05-12T04:18:59.787Z,40.20
2023-05-12T04:24:06.271Z,39.64
2023-05-12T04:29:14.821Z,39.74
2023-05-12T04:34:19.889Z,39.90
2023-05-12T04:39:25.219Z,39.16
2023-05-12T04:44:30.346Z,39.68
2023-05-12T04:49:35.536Z,39.65
2023-05-12T04:54:41.861Z,38.66
2023-05-12T04:59:46.986Z,39.26
2023-05-12T05:04:52.209Z,39.58
2023-05-12T05:10:00.417Z,39.86
2023-05-12T05:15:05.930Z,39.46
2023-05-12T05:20:15.436Z,39.52
2023-05-12T05:25:21.684Z,38.79
2023-05-12T05:30:26.933Z,39.91
2023-05-12T05:35:33.379Z,39.23
2023-05-12T05:40:49.316Z,38.58
2023-05-12T05:45:59.500Z,37.88
2023-05-12T05:51:06.202Z,37.97
2023-05-12T05:56:11.199Z,37.03
2023-05-12T06:01:16.762Z,38.75
2023-05-12T06:06:22.084Z,38.33
2023-05-12T06:11:27.233Z,37.74
2023-05-12T06:16:32.197Z,38.07
2023-05-12T06:21:38.252Z,38.94
2023-05-12T06:26:44.024Z,38.90
2023-05-12T06:31:49.807Z,39.40
2023-05-12T06:36:56.417Z,38.97
2023-05-12T06:42:03.045Z,39.13
2023-05-12T06:47:17.742Z,38.42
2023-05-12T06:52:25.223Z,38.86
2023-05-12T06:57:30.106Z,40.00
2023-05-12T07:02:35.249Z,43.00
2023-05-12T07:07:40.211Z,39.24
2023-05-12T07:12:45.375Z,43.82
2023-05-12T07:17:51.468Z,45.20
2023-05-12T07:22:57.895Z,46.93
2023-05-12T07:28:03.881Z,46.84
2023-05-12T07:33:09.777Z,46.75
2023-05-12T07:38:15.064Z,49.18
2023-05-12T07:43:20.042Z,47.75
2023-05-12T07:48:24.721Z,47.51
2023-05-12T07:53:29.711Z,47.88
2023-05-12T07:58:34.763Z,46.19
2023-05-12T08:03:40.314Z,46.89
2023-05-12T08:08:45.327Z,45.60
2023-05-12T08:13:50.330Z,44.81
2023-05-12T08:18:55.501Z,44.95
2023-05-12T08:24:00.699Z,44.46
2023-05-12T08:29:07.490Z,42.42
2023-05-12T08:34:12.854Z,43.32
2023-05-12T08:39:18.148Z,43.27
2023-05-12T08:44:24.518Z,42.21
2023-05-12T08:49:34.584Z,40.72
2023-05-12T08:54:48.914Z,40.79
2023-05-12T09:00:01.315Z,41.05
2023-05-12T09:05:06.360Z,39.60
2023-05-12T09:10:33.012Z,40.51
2023-05-12T09:15:44.512Z,40.22
2023-05-12T09:20:49.924Z,39.95
2023-05-12T09:26:04.131Z,39.64
2023-05-12T09:31:23.732Z,39.42
2023-05-12T09:36:28.989Z,39.96
2023-05-12T09:41:44.204Z,39.93
2023-05-12T09:46:49.778Z,40.17
2023-05-12T09:51:58.359Z,40.18
2023-05-12T09:57:09.951Z,40.34
2023-05-12T10:02:17.754Z,40.41
2023-05-12T10:07:29.795Z,40.65
2023-05-12T10:12:36.178Z,40.77
2023-05-12T10:17:43.887Z,40.53
2023-05-12T10:22:51.056Z,40.58
2023-05-12T10:27:57.684Z,40.74
2023-05-12T10:33:03.977Z,40.34
2023-05-12T10:38:23.648Z,40.00
2023-05-12T10:43:31.798Z,40.37
2023-05-12T10:48:37.902Z,40.51
2023-05-12T10:53:50.257Z,40.58
2023-05-12T10:59:15.912Z,40.06
2023-05-12T11:04:23.722Z,41.08
2023-05-12T11:09:29.373Z,41.18
2023-05-12T11:14:38.769Z,41.84
2023-05-12T11:19:49.395Z,40.43
2023-05-12T11:24:55.151Z,41.17
2023-05-12T11:30:02.293Z,42.23
2023-05-12T11:35:15.413Z,40.92
2023-05-12T11:40:24.054Z,41.54
2023-05-12T11:45:32.813Z,41.76
2023-05-12T11:50:41.189Z,42.06
2023-05-12T11:55:54.675Z,41.75
2023-05-12T12:01:11.413Z,42.89
2023-05-12T12:06:16.752Z,43.21
2023-05-12T12:11:22.854Z,43.64
2023-05-12T12:16:34.748Z,42.63
2023-05-12T12:21:40.129Z,43.35
2023-05-12T12:26:45.161Z,44.58
2023-05-12T12:31:50.388Z,43.85
2023-05-12T12:36:56.633Z,44.10
2023-05-12T12:42:01.772Z,43.59
2023-05-12T12:47:07.208Z,43.92
2023-05-12T12:52:12.695Z,43.53
2023-05-12T12:57:17.993Z,44.29
2023-05-12T13:02:23.107Z,44.88
2023-05-12T13:07:28.655Z,44.28
2023-05-12T13:12:37.525Z,44.32
2023-05-12T13:17:42.724Z,44.75
2023-05-12T13:22:49.086Z,44.41
2023-05-12T13:27:54.806Z,43.14
2023-05-12T13:33:00.093Z,45.33
2023-05-12T13:38:06.366Z,45.42
2023-05-12T13:43:12.540Z,45.07
2023-05-12T13:48:19.130Z,44.64
2023-05-12T13:53:24.861Z,45.11
2023-05-12T13:58:29.902Z,45.24
2023-05-12T14:03:36.122Z,45.29
2023-05-12T14:08:44.668Z,44.61
2023-05-12T14:13:50.585Z,44.99
2023-05-12T14:18:56.929Z,45.56
2023-05-12T14:24:03.047Z,45.45
2023-05-12T14:29:08.872Z,45.39
2023-05-12T14:34:15.424Z,45.09
2023-05-12T14:39:21.779Z,45.62
2023-05-12T14:44:27.197Z,46.61
2023-05-12T14:49:33.368Z,46.15
2023-05-12T14:54:39.212Z,46.12
2023-05-12T14:59:44.463Z,45.94
2023-05-12T15:04:50.920Z,45.91
2023-05-12T15:09:56.049Z,46.32
2023-05-12T15:15:06.658Z,46.43
2023-05-12T15:20:13.136Z,46.52
2023-05-12T15:25:18.804Z,46.88
2023-05-12T15:30:24.968Z,46.08
2023-05-12T15:35:30.798Z,45.77
2023-05-12T15:40:37.038Z,46.11
2023-05-12T15:45:44.080Z,46.92
2023-05-12T15:50:49.615Z,46.28
2023-05-12T15:56:06.818Z,46.01
2023-05-12T16:01:13.256Z,46.92
2023-05-12T16:06:19.382Z,47.65
2023-05-12T16:11:25.022Z,47.33
2023-05-12T16:16:33.017Z,47.79
2023-05-12T16:21:44.005Z,47.37
2023-05-12T16:26:49.810Z,47.43
2023-05-12T16:31:54.915Z,45.50
2023-05-12T16:37:02.018Z,47.50
2023-05-12T16:42:09.144Z,46.98
2023-05-12T16:47:15.599Z,46.87
2023-05-12T16:52:22.913Z,47.46
2023-05-12T16:57:29.870Z,47.57
2023-05-12T17:02:37.003Z,48.70
2023-05-12T17:07:42.333Z,47.19
2023-05-12T17:12:49.208Z,46.91
2023-05-12T17:17:55.588Z,48.17
2023-05-12T17:23:01.680Z,48.24
2023-05-12T17:28:07.720Z,47.98
2023-05-12T17:33:14.279Z,47.89
2023-05-12T17:38:22.240Z,48.44
2023-05-12T17:43:27.614Z,47.25
2023-05-12T17:48:34.523Z,48.59
2023-05-12T17:53:39.273Z,48.78
2023-05-12T17:58:44.616Z,48.90
2023-05-12T18:03:51.121Z,48.95
2023-05-12T18:08:57.843Z,48.57
2023-05-12T18:14:07.041Z,48.98
2023-05-12T18:19:13.781Z,48.75
2023-05-12T18:24:20.767Z,49.55
2023-05-12T18:29:26.342Z,49.78
2023-05-12T18:34:31.690Z,49.16
2023-05-12T18:39:37.742Z,49.82
2023-05-12T18:44:43.697Z,49.21
2023-05-12T18:49:50.995Z,48.90
2023-05-12T18:54:57.466Z,49.23
2023-05-12T19:00:02.978Z,49.55
2023-05-12T19:05:08.644Z,49.69
2023-05-12T19:10:15.326Z,49.44
2023-05-12T19:15:22.823Z,49.10
2023-05-12T19:20:30.372Z,50.08
2023-05-12T19:25:36.620Z,50.40
2023-05-12T19:30:42.160Z,49.50
2023-05-12T19:35:47.633Z,50.86
2023-05-12T19:40:52.954Z,50.39
2023-05-12T19:45:58.726Z,50.87
2023-05-12T19:51:05.933Z,50.64
2023-05-12T19:56:11.878Z,50.62
2023-05-12T20:01:16.741Z,51.04
2023-05-12T20:06:23.661Z,51.18
2023-05-12T20:11:29.270Z,51.59
2023-05-12T20:16:35.625Z,51.65
2023-05-12T20:21:42.910Z,51.36
2023-05-12T20:26:49.509Z,51.67
2023-05-12T20:31:55.154Z,50.71
2023-05-12T20:37:01.999Z,50.47
2023-05-12T20:42:09.396Z,51.49
2023-05-12T20:47:15.077Z,51.90
2023-05-12T20:52:20.697Z,52.39
2023-05-12T20:57:28.171Z,51.52
2023-05-12T21:02:33.448Z,53.29
2023-05-12T21:07:39.432Z,54.06
2023-05-12T21:12:46.407Z,54.17
2023-05-12T21:17:52.937Z,52.90
2023-05-12T21:23:00.741Z,52.95
2023-05-12T21:28:06.737Z,52.22
2023-05-12T21:33:12.308Z,52.27
2023-05-12T21:38:19.888Z,53.92
2023-05-12T21:43:25.612Z,52.04
2023-05-12T21:48:31.958Z,52.57
2023-05-12T21:53:38.279Z,51.33
2023-05-12T21:58:45.450Z,51.95
2023-05-12T22:03:52.889Z,51.39
2023-05-12T22:08:58.981Z,51.23
2023-05-12T22:14:04.609Z,54.08
2023-05-12T22:19:10.465Z,51.85
2023-05-12T22:24:16.248Z,51.26
2023-05-12T22:29:22.862Z,53.27
2023-05-12T22:34:28.418Z,51.27
2023-05-12T22:39:34.604Z,51.43
2023-05-12T22:44:43.284Z,50.34
2023-05-12T22:49:48.376Z,49.84
2023-05-12T22:54:59.865Z,48.07
2023-05-12T23:00:05.192Z,49.61
2023-05-12T23:05:09.842Z,49.25
2023-05-12T23:10:15.815Z,49.33
2023-05-12T23:15:20.840Z,48.70
2023-05-12T23:20:26.889Z,48.52
2023-05-12T23:25:32.669Z,48.44
2023-05-12T23:30:36.844Z,47.98
2023-05-12T23:35:43.156Z,47.82
2023-05-12T23:40:49.190Z,47.98
2023-05-12T23:45:54.357Z,47.57
2023-05-12T23:51:00.516Z,47.64
2023-05-12T23:56:05.506Z,47.59
